createdAt,value
2018-02-25T00:01:00.509Z,3.70
2018-02-25T00:03:28.544Z,2.97
2018-02-25T00:05:56.216Z,4.05
2018-02-25T00:08:24.203Z,3.53
2018-02-25T00:10:51.872Z,3.42
2018-02-25T00:13:19.585Z,3.70
2018-02-25T00:15:47.216Z,3.28
2018-02-25T00:18:14.855Z,3.50
2018-02-25T00:20:42.547Z,3.42
2018-02-25T00:23:10.197Z,3.65
2018-02-25T00:25:37.886Z,3.80
2018-02-25T00:28:05.511Z,3.45
2018-02-25T00:30:33.164Z,3.43
2018-02-25T00:33:01.607Z,3.53
2018-02-25T00:35:29.278Z,4.00
2018-02-25T00:37:56.935Z,4.00
2018-02-25T00:40:25.681Z,4.00
2018-02-25T00:42:53.688Z,3.62
2018-02-25T00:45:21.353Z,3.90
2018-02-25T00:47:49.015Z,3.60
2018-02-25T00:50:16.706Z,3.80
2018-02-25T00:52:44.365Z,3.58
2018-02-25T00:55:13.155Z,3.37
2018-02-25T00:57:40.816Z,3.72
2018-02-25T01:00:09.346Z,3.87
2018-02-25T01:02:37.036Z,3.80
2018-02-25T01:05:04.710Z,3.80
2018-02-25T01:07:32.607Z,3.75
2018-02-25T01:10:00.250Z,3.80
2018-02-25T01:12:27.915Z,3.55
2018-02-25T01:14:55.635Z,3.67
2018-02-25T01:17:23.273Z,3.80
2018-02-25T01:19:50.938Z,3.33
2018-02-25T01:22:18.597Z,3.35
2018-02-25T01:24:46.233Z,3.70
2018-02-25T01:27:13.903Z,3.33
2018-02-25T01:29:42.457Z,4.35
2018-02-25T01:32:10.098Z,3.75
2018-02-25T01:34:37.760Z,3.33
2018-02-25T01:37:05.435Z,4.00
2018-02-25T01:39:33.067Z,3.90
2018-02-25T01:42:00.897Z,3.65
2018-02-25T01:44:28.527Z,4.05
2018-02-25T01:46:56.172Z,3.30
2018-02-25T01:49:23.902Z,4.07
2018-02-25T01:51:51.727Z,3.90
2018-02-25T01:54:19.409Z,3.58
2018-02-25T01:56:47.085Z,3.53
2018-02-25T01:59:14.794Z,3.58
2018-02-25T02:01:42.466Z,4.10
2018-02-25T02:04:10.954Z,4.03
2018-02-25T02:06:39.440Z,3.57
2018-02-25T02:09:08.624Z,3.93
2018-02-25T02:11:37.118Z,4.20
2018-02-25T02:14:05.578Z,4.00
2018-02-25T02:16:33.219Z,4.80
2018-02-25T02:19:00.910Z,3.87
2018-02-25T02:21:29.380Z,4.03
2018-02-25T02:23:57.042Z,3.97
2018-02-25T02:26:24.705Z,4.03
2018-02-25T02:28:52.406Z,3.92
2018-02-25T02:31:20.869Z,4.32
2018-02-25T02:33:48.554Z,4.33
2018-02-25T02:36:16.194Z,4.10
2018-02-25T02:38:43.866Z,4.03
2018-02-25T02:41:11.553Z,3.78
2018-02-25T02:43:39.232Z,4.00
2018-02-25T02:46:06.902Z,3.87
2018-02-25T02:48:34.537Z,3.45
2018-02-25T02:51:02.564Z,4.00
2018-02-25T02:53:30.996Z,4.30
2018-02-25T02:55:58.698Z,3.85
2018-02-25T02:58:26.401Z,4.18
2018-02-25T03:00:54.071Z,3.87
2018-02-25T03:03:21.698Z,4.12
2018-02-25T03:05:49.768Z,3.87
2018-02-25T03:08:17.442Z,4.47
2018-02-25T03:10:45.885Z,3.50
2018-02-25T03:13:13.577Z,3.75
2018-02-25T03:15:41.633Z,3.70
2018-02-25T03:18:09.312Z,4.37
2018-02-25T03:20:36.974Z,4.70
2018-02-25T03:23:04.648Z,4.00
2018-02-25T03:25:32.326Z,4.37
2018-02-25T03:27:59.995Z,3.90
2018-02-25T03:30:27.731Z,4.10
2018-02-25T03:32:55.432Z,3.87
2018-02-25T03:35:23.062Z,4.37
2018-02-25T03:37:50.756Z,4.28
2018-02-25T03:40:18.709Z,4.03
2018-02-25T03:42:46.388Z,4.53
2018-02-25T03:45:14.048Z,3.45
2018-02-25T03:47:41.709Z,4.28
2018-02-25T03:50:09.374Z,4.12
2018-02-25T03:52:37.098Z,3.90
2018-02-25T03:55:05.717Z,3.80
2018-02-25T03:57:33.350Z,4.12
2018-02-25T04:00:01.760Z,3.95
2018-02-25T04:02:29.478Z,4.23
2018-02-25T04:04:57.143Z,3.67
2018-02-25T04:07:24.791Z,4.37
2018-02-25T04:09:52.470Z,5.07
2018-02-25T04:12:20.102Z,4.40
2018-02-25T04:14:47.735Z,4.25
2018-02-25T04:17:16.188Z,3.72
2018-02-25T04:19:44.143Z,4.10
2018-02-25T04:22:11.789Z,4.00
2018-02-25T04:24:39.456Z,4.20
2018-02-25T04:27:07.122Z,4.32
2018-02-25T04:29:34.757Z,5.07
2018-02-25T04:32:02.424Z,3.40
2018-02-25T04:34:30.825Z,4.28
2018-02-25T04:36:58.501Z,4.15
2018-02-25T04:39:26.149Z,4.10
2018-02-25T04:41:54.725Z,4.17
2018-02-25T04:44:22.362Z,4.53
2018-02-25T04:46:49.995Z,3.80
2018-02-25T04:49:17.686Z,4.25
2018-02-25T04:51:45.344Z,4.22
2018-02-25T04:54:13.030Z,4.18
2018-02-25T04:56:40.704Z,5.12
2018-02-25T04:59:08.371Z,4.10
2018-02-25T05:01:37.773Z,3.92
2018-02-25T05:04:05.431Z,4.27
2018-02-25T05:06:33.096Z,4.43
2018-02-25T05:09:01.096Z,4.15
2018-02-25T05:11:28.724Z,4.15
2018-02-25T05:13:56.390Z,4.00
2018-02-25T05:16:24.057Z,4.40
2018-02-25T05:18:51.712Z,4.25
2018-02-25T05:21:19.381Z,4.25
2018-02-25T05:23:47.025Z,4.03
2018-02-25T05:26:14.705Z,4.20
2018-02-25T05:28:42.348Z,3.95
2018-02-25T05:31:10.797Z,4.57
2018-02-25T05:33:38.482Z,3.78
2018-02-25T05:36:06.962Z,4.35
2018-02-25T05:38:34.618Z,3.60
2018-02-25T05:41:02.296Z,4.20
2018-02-25T05:43:29.969Z,4.37
2018-02-25T05:45:57.636Z,4.37
2018-02-25T05:48:25.962Z,4.28
2018-02-25T05:50:53.608Z,4.05
2018-02-25T05:53:22.022Z,4.15
2018-02-25T05:55:50.234Z,4.55
2018-02-25T05:58:18.701Z,4.05
2018-02-25T06:00:46.363Z,4.72
2018-02-25T06:03:14.070Z,4.90
2018-02-25T06:05:41.727Z,4.30
2018-02-25T06:08:10.201Z,3.75
2018-02-25T06:10:37.911Z,4.45
2018-02-25T06:13:05.593Z,4.68
2018-02-25T06:15:33.543Z,4.25
2018-02-25T06:18:01.211Z,4.60
2018-02-25T06:20:28.861Z,3.70
2018-02-25T06:22:56.542Z,4.15
2018-02-25T06:25:24.328Z,4.40
2018-02-25T06:27:53.807Z,4.43
2018-02-25T06:30:24.155Z,4.18
2018-02-25T06:32:52.653Z,4.40
2018-02-25T06:35:21.086Z,4.55
2018-02-25T06:37:50.934Z,5.78
2018-02-25T06:40:18.646Z,4.80
2018-02-25T06:42:46.680Z,4.80
2018-02-25T06:45:14.339Z,4.22
2018-02-25T06:47:42.316Z,4.40
2018-02-25T06:50:10.396Z,4.18
2018-02-25T06:52:38.104Z,4.45
2018-02-25T06:55:05.833Z,4.55
2018-02-25T06:57:33.497Z,3.90
2018-02-25T07:00:01.952Z,4.22
2018-02-25T07:02:30.558Z,4.57
2018-02-25T07:05:00.106Z,4.78
2018-02-25T07:07:28.507Z,5.20
2018-02-25T07:09:56.183Z,4.97
2018-02-25T07:12:26.079Z,4.40
2018-02-25T07:14:54.548Z,4.28
2018-02-25T07:17:22.291Z,4.45
2018-02-25T07:19:51.169Z,4.35
2018-02-25T07:22:18.848Z,4.50
2018-02-25T07:24:46.494Z,5.15
2018-02-25T07:27:14.176Z,4.47
2018-02-25T07:29:42.418Z,4.47
2018-02-25T07:32:10.824Z,4.50
2018-02-25T07:34:39.522Z,4.40
2018-02-25T07:37:07.208Z,4.50
2018-02-25T07:39:34.892Z,3.92
2018-02-25T07:42:02.568Z,4.75
2018-02-25T07:44:30.246Z,4.28
2018-02-25T07:46:58.696Z,4.57
2018-02-25T07:49:26.659Z,4.50
2018-02-25T07:51:54.344Z,3.85
2018-02-25T07:54:22.905Z,4.10
2018-02-25T07:56:50.588Z,4.18
2018-02-25T07:59:18.256Z,4.90
2018-02-25T08:01:46.736Z,4.10
2018-02-25T08:04:14.447Z,4.40
2018-02-25T08:06:42.875Z,4.35
2018-02-25T08:09:10.638Z,3.92
2018-02-25T08:11:38.299Z,4.50
2018-02-25T08:14:06.652Z,3.87
2018-02-25T08:16:35.090Z,4.10
2018-02-25T08:19:02.767Z,4.30
2018-02-25T08:21:30.481Z,4.35
2018-02-25T08:23:59.239Z,3.80
2018-02-25T08:26:26.933Z,4.57
2018-02-25T08:28:55.414Z,3.80
2018-02-25T08:31:23.863Z,4.20
2018-02-25T08:33:51.568Z,4.70
2018-02-25T08:36:21.104Z,3.75
2018-02-25T08:38:49.652Z,3.60
2018-02-25T08:41:19.696Z,4.53
2018-02-25T08:43:48.143Z,3.50
2018-02-25T08:46:15.931Z,3.85
2018-02-25T08:48:44.435Z,3.50
2018-02-25T08:51:12.199Z,3.30
2018-02-25T08:53:40.643Z,3.92
2018-02-25T08:56:08.342Z,3.40
2018-02-25T08:58:36.818Z,3.70
2018-02-25T09:01:04.507Z,3.87
2018-02-25T09:03:32.944Z,3.37
2018-02-25T09:06:00.684Z,3.70
2018-02-25T09:08:29.328Z,3.60
2018-02-25T09:10:57.039Z,3.33
2018-02-25T09:13:24.740Z,3.37
2018-02-25T09:15:52.863Z,3.50
2018-02-25T09:18:20.620Z,3.00
2018-02-25T09:20:49.142Z,2.92
2018-02-25T09:23:16.838Z,3.33
2018-02-25T09:25:44.813Z,2.97
2018-02-25T09:28:12.525Z,3.50
2018-02-25T09:30:40.981Z,3.15
2018-02-25T09:33:08.616Z,3.00
2018-02-25T09:35:36.415Z,3.30
2018-02-25T09:38:04.456Z,3.17
2018-02-25T09:40:32.165Z,3.10
2018-02-25T09:43:00.625Z,2.65
2018-02-25T09:45:28.282Z,3.30
2018-02-25T09:47:56.051Z,2.90
2018-02-25T09:50:23.815Z,3.00
2018-02-25T09:52:51.473Z,3.20
2018-02-25T09:55:19.186Z,3.10
2018-02-25T09:57:46.875Z,3.03
2018-02-25T10:00:14.554Z,2.50
2018-02-25T10:02:43.322Z,2.83
2018-02-25T10:05:10.987Z,2.65
2018-02-25T10:07:38.673Z,3.30
2018-02-25T10:10:06.385Z,3.30
2018-02-25T10:12:34.411Z,3.05
2018-02-25T10:15:02.909Z,3.10
2018-02-25T10:17:36.465Z,3.28
2018-02-25T10:20:04.172Z,3.08
2018-02-25T10:22:32.784Z,2.70
2018-02-25T10:25:00.546Z,2.80
2018-02-25T10:27:29.529Z,2.83
2018-02-25T10:29:57.255Z,3.35
2018-02-25T10:32:24.943Z,2.60
2018-02-25T10:34:52.721Z,2.90
2018-02-25T10:37:20.362Z,3.15
2018-02-25T10:39:48.626Z,2.90
2018-02-25T10:42:16.330Z,3.10
2018-02-25T10:44:44.042Z,2.90
2018-02-25T10:47:11.703Z,2.90
2018-02-25T10:49:39.364Z,2.70
2018-02-25T10:52:07.366Z,3.10
2018-02-25T10:54:35.086Z,2.97
2018-02-25T10:57:03.574Z,2.83
2018-02-25T10:59:31.271Z,2.62
2018-02-25T11:01:59.004Z,3.12
2018-02-25T11:04:27.468Z,3.03
2018-02-25T11:06:55.147Z,2.65
2018-02-25T11:09:23.151Z,2.37
2018-02-25T11:11:51.655Z,2.83
2018-02-25T11:14:19.367Z,2.60
2018-02-25T11:16:47.026Z,2.80
2018-02-25T11:19:15.912Z,2.67
2018-02-25T11:21:43.604Z,2.55
2018-02-25T11:24:11.277Z,2.90
2018-02-25T11:26:38.940Z,2.58
2018-02-25T11:29:07.327Z,2.70
2018-02-25T11:31:35.061Z,2.67
2018-02-25T11:34:02.920Z,2.58
2018-02-25T11:36:30.582Z,3.22
2018-02-25T11:38:58.226Z,2.60
2018-02-25T11:41:25.897Z,2.30
2018-02-25T11:43:54.297Z,2.42
2018-02-25T11:46:21.997Z,2.70
2018-02-25T11:48:49.641Z,2.60
2018-02-25T11:51:17.382Z,2.60
2018-02-25T11:53:45.840Z,2.40
2018-02-25T11:56:13.573Z,2.30
2018-02-25T11:58:41.265Z,2.58
2018-02-25T12:01:08.964Z,2.40
2018-02-25T12:03:37.421Z,2.17
2018-02-25T12:06:05.926Z,2.78
2018-02-25T12:08:34.356Z,2.22
2018-02-25T12:11:02.490Z,2.33
2018-02-25T12:13:30.205Z,2.50
2018-02-25T12:15:57.873Z,2.10
2018-02-25T12:18:25.504Z,2.05
2018-02-25T12:20:53.942Z,1.42
2018-02-25T12:23:21.898Z,2.00
2018-02-25T12:25:50.303Z,1.92
2018-02-25T12:28:17.998Z,1.50
2018-02-25T12:30:46.438Z,2.23
2018-02-25T12:33:14.069Z,2.05
2018-02-25T12:35:42.843Z,2.00
2018-02-25T12:38:11.261Z,1.60
2018-02-25T12:40:38.914Z,2.30
2018-02-25T12:43:07.352Z,1.53
2018-02-25T12:45:35.047Z,2.70
2018-02-25T12:48:02.734Z,1.75
2018-02-25T12:50:30.393Z,1.60
2018-02-25T12:52:58.866Z,1.52
2018-02-25T12:55:26.562Z,1.75
2018-02-25T12:57:54.192Z,1.90
2018-02-25T13:00:21.890Z,1.60
2018-02-25T13:02:50.320Z,1.58
2018-02-25T13:05:17.990Z,1.52
2018-02-25T13:07:45.682Z,1.50
2018-02-25T13:10:13.347Z,1.62
2018-02-25T13:12:41.024Z,1.98
2018-02-25T13:15:08.691Z,1.60
2018-02-25T13:17:36.406Z,1.80
2018-02-25T13:20:04.110Z,1.60
2018-02-25T13:22:31.776Z,1.90
2018-02-25T13:24:59.489Z,1.95
2018-02-25T13:27:27.157Z,2.15
2018-02-25T13:29:54.859Z,2.30
2018-02-25T13:32:22.553Z,1.87
2018-02-25T13:34:50.244Z,1.70
2018-02-25T13:37:19.458Z,1.65
2018-02-25T13:39:47.172Z,1.70
2018-02-25T13:42:14.859Z,1.95
2018-02-25T13:44:42.531Z,1.50
2018-02-25T13:47:10.172Z,2.08
2018-02-25T13:49:38.534Z,2.10
2018-02-25T13:52:06.793Z,1.80
2018-02-25T13:54:35.198Z,1.60
2018-02-25T13:57:03.855Z,2.00
2018-02-25T13:59:31.621Z,1.70
2018-02-25T14:02:00.047Z,2.00
2018-02-25T14:04:27.744Z,1.67
2018-02-25T14:06:55.459Z,2.00
2018-02-25T14:09:23.132Z,2.58
2018-02-25T14:11:50.806Z,2.10
2018-02-25T14:14:18.507Z,2.45
2018-02-25T14:16:47.246Z,2.10
2018-02-25T14:19:15.679Z,2.40
2018-02-25T14:21:43.388Z,2.20
2018-02-25T14:24:11.801Z,2.03
2018-02-25T14:26:39.515Z,2.67
2018-02-25T14:29:08.113Z,2.15
2018-02-25T14:31:35.823Z,2.27
2018-02-25T14:34:03.498Z,2.58
2018-02-25T14:36:31.288Z,2.55
2018-02-25T14:38:58.971Z,2.40
2018-02-25T14:41:27.198Z,2.78
2018-02-25T14:43:55.856Z,2.25
2018-02-25T14:46:24.351Z,2.33
2018-02-25T14:48:52.037Z,2.92
2018-02-25T14:51:19.756Z,2.50
2018-02-25T14:53:47.939Z,2.80
2018-02-25T14:56:16.386Z,2.40
2018-02-25T14:58:44.051Z,2.60
2018-02-25T15:01:11.736Z,2.70
2018-02-25T15:03:39.373Z,2.80
2018-02-25T15:06:07.050Z,2.45
2018-02-25T15:08:34.716Z,3.10
2018-02-25T15:11:03.247Z,3.20
2018-02-25T15:13:32.032Z,2.70
2018-02-25T15:15:59.658Z,2.70
2018-02-25T15:18:27.342Z,3.05
2018-02-25T15:20:55.023Z,2.60
2018-02-25T15:23:22.689Z,2.50
2018-02-25T15:25:50.387Z,2.92
2018-02-25T15:28:18.154Z,2.97
2018-02-25T15:30:45.859Z,2.70
2018-02-25T15:33:13.539Z,3.20
2018-02-25T15:35:41.181Z,3.42
2018-02-25T15:38:08.869Z,3.10
2018-02-25T15:40:36.551Z,2.97
2018-02-25T15:43:04.213Z,2.95
2018-02-25T15:45:31.847Z,2.87
2018-02-25T15:47:59.858Z,2.70
2018-02-25T15:50:27.519Z,3.00
2018-02-25T15:52:56.162Z,3.37
2018-02-25T15:55:24.610Z,2.97
2018-02-25T15:57:52.303Z,3.10
2018-02-25T16:00:20.713Z,2.83
2018-02-25T16:02:48.751Z,3.00
2018-02-25T16:05:16.468Z,2.45
2018-02-25T16:07:44.260Z,3.35
2018-02-25T16:10:11.940Z,2.80
2018-02-25T16:12:40.269Z,3.20
2018-02-25T16:15:07.969Z,3.37
2018-02-25T16:17:35.675Z,3.22
2018-02-25T16:20:03.366Z,3.67
2018-02-25T16:22:31.825Z,2.97
2018-02-25T16:25:00.311Z,3.70
2018-02-25T16:27:28.778Z,3.10
2018-02-25T16:29:56.535Z,3.33
2018-02-25T16:32:24.972Z,3.15
2018-02-25T16:34:53.665Z,2.85
2018-02-25T16:37:21.452Z,3.40
2018-02-25T16:39:49.134Z,3.10
2018-02-25T16:42:16.821Z,3.50
2018-02-25T16:44:44.606Z,4.00
2018-02-25T16:47:12.291Z,4.18
2018-02-25T16:49:40.733Z,3.78
2018-02-25T16:52:08.365Z,4.43
2018-02-25T16:54:36.144Z,4.07
2018-02-25T16:57:04.577Z,3.87
2018-02-25T16:59:32.987Z,3.72
2018-02-25T17:02:01.937Z,3.95
2018-02-25T17:04:29.592Z,4.50
2018-02-25T17:06:58.103Z,4.30
2018-02-25T17:09:25.813Z,4.47
2018-02-25T17:11:54.274Z,4.12
2018-02-25T17:14:22.778Z,3.70
2018-02-25T17:16:51.539Z,4.00
2018-02-25T17:19:20.430Z,4.05
2018-02-25T17:21:48.397Z,4.05
2018-02-25T17:24:16.060Z,4.10
2018-02-25T17:26:43.804Z,4.60
2018-02-25T17:29:11.902Z,3.87
2018-02-25T17:31:40.274Z,4.20
2018-02-25T17:34:07.988Z,4.12
2018-02-25T17:36:35.640Z,4.75
2018-02-25T17:39:04.232Z,4.47
2018-02-25T17:41:32.299Z,4.70
2018-02-25T17:44:00.786Z,4.18
2018-02-25T17:46:28.854Z,4.72
2018-02-25T17:48:56.542Z,4.78
2018-02-25T17:51:24.184Z,4.60
2018-02-25T17:53:52.470Z,4.17
2018-02-25T17:56:20.152Z,4.20
2018-02-25T17:58:47.858Z,4.53
2018-02-25T18:01:15.582Z,4.40
2018-02-25T18:03:44.126Z,4.30
2018-02-25T18:06:12.570Z,4.55
2018-02-25T18:08:40.492Z,4.12
2018-02-25T18:11:08.129Z,4.20
2018-02-25T18:13:36.569Z,4.60
2018-02-25T18:16:04.277Z,4.35
2018-02-25T18:18:32.755Z,5.40
2018-02-25T18:21:00.425Z,4.10
2018-02-25T18:23:28.894Z,4.17
2018-02-25T18:25:56.550Z,4.37
2018-02-25T18:28:24.551Z,4.32
2018-02-25T18:30:52.206Z,4.37
2018-02-25T18:33:20.693Z,4.33
2018-02-25T18:35:48.339Z,5.00
2018-02-25T18:38:16.648Z,4.57
2018-02-25T18:40:44.317Z,3.75
2018-02-25T18:43:12.811Z,3.97
2018-02-25T18:45:40.550Z,3.85
2018-02-25T18:48:08.624Z,4.50
2018-02-25T18:50:36.732Z,4.30
2018-02-25T18:53:05.206Z,4.22
2018-02-25T18:55:32.894Z,4.05
2018-02-25T18:58:01.333Z,5.10
2018-02-25T19:00:29.012Z,4.30
2018-02-25T19:02:56.709Z,4.57
2018-02-25T19:05:25.176Z,4.63
2018-02-25T19:07:53.595Z,4.12
2018-02-25T19:10:21.277Z,4.18
2018-02-25T19:12:48.936Z,4.40
2018-02-25T19:15:16.622Z,4.30
2018-02-25T19:17:44.250Z,4.43
2018-02-25T19:20:12.933Z,4.45
2018-02-25T19:22:41.428Z,5.32
2018-02-25T19:25:09.371Z,4.62
2018-02-25T19:27:37.046Z,4.60
2018-02-25T19:30:04.680Z,4.50
2018-02-25T19:32:33.181Z,4.20
2018-02-25T19:35:00.865Z,4.00
2018-02-25T19:37:34.362Z,3.80
2018-02-25T19:40:03.614Z,4.55
2018-02-25T19:42:31.328Z,3.87
2018-02-25T19:44:58.995Z,3.97
2018-02-25T19:47:26.976Z,4.07
2018-02-25T19:49:54.646Z,3.90
2018-02-25T19:52:22.286Z,4.30
2018-02-25T19:54:50.745Z,3.97
2018-02-25T19:57:18.393Z,4.50
2018-02-25T19:59:46.772Z,4.40
2018-02-25T20:02:14.536Z,4.57
2018-02-25T20:04:42.181Z,4.23
2018-02-25T20:07:10.196Z,4.50
2018-02-25T20:09:39.213Z,4.40
2018-02-25T20:12:07.600Z,4.75
2018-02-25T20:14:35.258Z,4.30
2018-02-25T20:17:02.949Z,4.60
2018-02-25T20:19:30.981Z,4.20
2018-02-25T20:21:59.441Z,4.50
2018-02-25T20:24:27.978Z,4.37
2018-02-25T20:26:56.406Z,4.10
2018-02-25T20:29:24.050Z,3.85
2018-02-25T20:31:52.370Z,4.97
2018-02-25T20:34:20.054Z,3.93
2018-02-25T20:36:47.916Z,4.22
2018-02-25T20:39:15.590Z,4.43
2018-02-25T20:41:43.245Z,4.40
2018-02-25T20:44:10.954Z,4.30
2018-02-25T20:46:39.385Z,4.45
2018-02-25T20:49:07.086Z,4.60
2018-02-25T20:51:35.537Z,4.40
2018-02-25T20:54:03.169Z,4.45
2018-02-25T20:56:30.849Z,4.90
2018-02-25T20:58:58.494Z,4.10
2018-02-25T21:01:26.916Z,3.92
2018-02-25T21:03:54.557Z,3.75
2018-02-25T21:06:22.224Z,4.00
2018-02-25T21:08:49.943Z,4.32
2018-02-25T21:11:17.994Z,4.53
2018-02-25T21:13:45.682Z,4.00
2018-02-25T21:16:13.312Z,4.37
2018-02-25T21:18:40.992Z,4.35
2018-02-25T21:21:08.639Z,4.93
2018-02-25T21:23:36.307Z,4.70
2018-02-25T21:26:03.985Z,4.32
2018-02-25T21:28:35.674Z,4.30
2018-02-25T21:31:03.852Z,4.40
2018-02-25T21:33:31.517Z,4.40
2018-02-25T21:35:59.239Z,4.62
2018-02-25T21:38:26.900Z,4.57
2018-02-25T21:40:54.569Z,3.95
2018-02-25T21:43:22.245Z,4.15
2018-02-25T21:45:50.502Z,4.40
2018-02-25T21:48:18.966Z,4.32
2018-02-25T21:50:46.642Z,4.43
2018-02-25T21:53:14.696Z,4.70
2018-02-25T21:55:48.175Z,4.75
2018-02-25T21:58:21.572Z,4.53
2018-02-25T22:00:54.993Z,5.28
2018-02-25T22:03:28.336Z,4.35
2018-02-25T22:05:56.025Z,4.45
2018-02-25T22:08:23.678Z,4.22
2018-02-25T22:10:51.431Z,4.63
2018-02-25T22:13:19.113Z,4.33
2018-02-25T22:15:46.746Z,4.97
2018-02-25T22:18:15.189Z,4.68
2018-02-25T22:20:42.880Z,5.40
2018-02-25T22:23:12.567Z,4.45
2018-02-25T22:25:41.200Z,4.57
2018-02-25T22:28:08.830Z,5.13
2018-02-25T22:30:36.512Z,5.40
2018-02-25T22:33:04.146Z,4.90
2018-02-25T22:35:31.782Z,4.77
2018-02-25T22:38:00.230Z,4.80
2018-02-25T22:40:27.912Z,4.60
2018-02-25T22:42:55.604Z,4.45
2018-02-25T22:45:23.247Z,5.33
2018-02-25T22:47:50.961Z,4.80
2018-02-25T22:50:18.646Z,4.60
2018-02-25T22:52:46.278Z,4.95
2018-02-25T22:55:14.702Z,5.35
2018-02-25T22:57:42.363Z,5.20
2018-02-25T23:00:10.031Z,5.27
2018-02-25T23:02:37.682Z,4.90
2018-02-25T23:05:05.356Z,5.40
2018-02-25T23:07:33.067Z,4.85
2018-02-25T23:10:00.764Z,4.70
2018-02-25T23:12:29.215Z,4.82
2018-02-25T23:14:56.873Z,5.15
2018-02-25T23:17:25.015Z,4.95
2018-02-25T23:19:52.689Z,5.75
2018-02-25T23:22:20.369Z,5.22
2018-02-25T23:24:48.002Z,5.00
2018-02-25T23:27:15.658Z,4.95
2018-02-25T23:29:44.106Z,5.10
2018-02-25T23:32:11.783Z,4.35
2018-02-25T23:34:40.193Z,4.47
2018-02-25T23:37:08.628Z,4.65
2018-02-25T23:39:36.331Z,4.30
2018-02-25T23:42:04.753Z,5.03
2018-02-25T23:44:32.417Z,4.30
2018-02-25T23:47:00.102Z,4.90
2018-02-25T23:49:28.689Z,5.25
2018-02-25T23:51:56.342Z,4.70
2018-02-25T23:54:24.013Z,5.05
2018-02-25T23:56:51.659Z,6.25
2018-02-25T23:59:20.111Z,4.82
